sensor_id;sensor_type;location;lat;lon;timestamp;pressure;altitude;pressure_sealevel;temperature;humidity
20942;BME280;10630;53.734;10.282;2023-01-25T00:00:50;103422.06;;;7.26;60.53
20942;BME280;10630;53.734;10.282;2023-01-25T00:03:16;103417.84;;;6.70;60.79
20942;BME280;10630;53.734;10.282;2023-01-25T00:05:43;103407.75;;;7.13;61.03
20942;BME280;10630;53.734;10.282;2023-01-25T00:08:09;103406.47;;;7.38;60.41
20942;BME280;10630;53.734;10.282;2023-01-25T00:10:37;103400.13;;;7.07;60.69
20942;BME280;10630;53.734;10.282;2023-01-25T00:13:03;103405.69;;;7.36;60.51
20942;BME280;10630;53.734;10.282;2023-01-25T00:15:30;103409.47;;;7.32;60.38
20942;BME280;10630;53.734;10.282;2023-01-25T00:17:56;103407.84;;;7.11;59.64
20942;BME280;10630;53.734;10.282;2023-01-25T00:20:22;103407.59;;;7.16;60.19
20942;BME280;10630;53.734;10.282;2023-01-25T00:22:49;103406.63;;;7.35;60.39
20942;BME280;10630;53.734;10.282;2023-01-25T00:25:17;103406.81;;;7.32;59.83
20942;BME280;10630;53.734;10.282;2023-01-25T00:27:43;103405.47;;;7.40;59.70
20942;BME280;10630;53.734;10.282;2023-01-25T00:30:10;103409.72;;;7.60;59.51
20942;BME280;10630;53.734;10.282;2023-01-25T00:32:45;103414.22;;;7.25;59.95
20942;BME280;10630;53.734;10.282;2023-01-25T00:35:12;103404.44;;;7.25;60.81
20942;BME280;10630;53.734;10.282;2023-01-25T00:37:41;103410.06;;;7.19;60.76
20942;BME280;10630;53.734;10.282;2023-01-25T00:40:08;103400.41;;;7.36;59.96
20942;BME280;10630;53.734;10.282;2023-01-25T00:42:35;103401.88;;;6.15;60.63
20942;BME280;10630;53.734;10.282;2023-01-25T00:45:02;103389.78;;;6.65;62.01
20942;BME280;10630;53.734;10.282;2023-01-25T00:47:29;103386.31;;;6.82;61.56
20942;BME280;10630;53.734;10.282;2023-01-25T00:49:55;103384.00;;;7.11;60.92
20942;BME280;10630;53.734;10.282;2023-01-25T00:52:21;103388.19;;;7.16;60.52
20942;BME280;10630;53.734;10.282;2023-01-25T00:54:48;103378.50;;;7.15;60.75
20942;BME280;10630;53.734;10.282;2023-01-25T00:57:15;103372.28;;;7.16;60.81
20942;BME280;10630;53.734;10.282;2023-01-25T00:59:41;103365.97;;;6.65;61.36
20942;BME280;10630;53.734;10.282;2023-01-25T01:02:10;103364.03;;;6.87;61.49
20942;BME280;10630;53.734;10.282;2023-01-25T01:04:37;103361.13;;;7.26;61.08
20942;BME280;10630;53.734;10.282;2023-01-25T01:07:04;103364.81;;;7.06;60.78
20942;BME280;10630;53.734;10.282;2023-01-25T01:09:31;103367.59;;;7.21;60.35
20942;BME280;10630;53.734;10.282;2023-01-25T01:11:57;103365.66;;;7.24;60.26
20942;BME280;10630;53.734;10.282;2023-01-25T01:14:24;103365.66;;;7.24;60.24
20942;BME280;10630;53.734;10.282;2023-01-25T01:16:50;103362.19;;;7.40;59.58
20942;BME280;10630;53.734;10.282;2023-01-25T01:19:17;103357.09;;;7.19;60.48
20942;BME280;10630;53.734;10.282;2023-01-25T01:21:44;103356.63;;;6.02;60.69
20942;BME280;10630;53.734;10.282;2023-01-25T01:24:10;103348.38;;;6.64;62.40
20942;BME280;10630;53.734;10.282;2023-01-25T01:26:37;103356.34;;;7.00;61.18
20942;BME280;10630;53.734;10.282;2023-01-25T01:29:04;103354.47;;;6.67;61.20
20942;BME280;10630;53.734;10.282;2023-01-25T01:31:30;103354.16;;;6.73;61.31
20942;BME280;10630;53.734;10.282;2023-01-25T01:33:57;103357.09;;;7.19;60.29
20942;BME280;10630;53.734;10.282;2023-01-25T01:36:25;103356.63;;;7.11;59.60
20942;BME280;10630;53.734;10.282;2023-01-25T01:38:51;103352.72;;;7.18;59.67
20942;BME280;10630;53.734;10.282;2023-01-25T01:41:18;103345.22;;;7.26;59.71
20942;BME280;10630;53.734;10.282;2023-01-25T01:43:45;103344.41;;;7.08;59.74
20942;BME280;10630;53.734;10.282;2023-01-25T01:49:23;103355.91;;;7.25;59.94
20942;BME280;10630;53.734;10.282;2023-01-25T01:51:52;103349.22;;;6.47;60.78
20942;BME280;10630;53.734;10.282;2023-01-25T01:57:11;103341.25;;;6.84;61.06
20942;BME280;10630;53.734;10.282;2023-01-25T01:59:36;103342.78;;;6.88;61.18
20942;BME280;10630;53.734;10.282;2023-01-25T02:02:05;103340.16;;;7.22;60.52
20942;BME280;10630;53.734;10.282;2023-01-25T02:04:32;103334.69;;;6.91;60.22
20942;BME280;10630;53.734;10.282;2023-01-25T02:06:59;103332.94;;;6.38;60.98
20942;BME280;10630;53.734;10.282;2023-01-25T02:09:28;103339.97;;;6.74;60.94
20942;BME280;10630;53.734;10.282;2023-01-25T02:11:57;103329.38;;;6.74;61.13
20942;BME280;10630;53.734;10.282;2023-01-25T02:14:25;103331.81;;;6.78;60.76
20942;BME280;10630;53.734;10.282;2023-01-25T02:16:52;103328.88;;;7.18;60.48
20942;BME280;10630;53.734;10.282;2023-01-25T02:22:07;103337.59;;;6.32;60.60
20942;BME280;10630;53.734;10.282;2023-01-25T02:24:35;103330.78;;;6.63;60.87
20942;BME280;10630;53.734;10.282;2023-01-25T02:27:02;103334.25;;;6.10;62.47
20942;BME280;10630;53.734;10.282;2023-01-25T02:29:29;103322.63;;;6.51;62.61
20942;BME280;10630;53.734;10.282;2023-01-25T02:32:01;103324.41;;;6.68;61.72
20942;BME280;10630;53.734;10.282;2023-01-25T02:34:28;103319.44;;;6.61;61.82
20942;BME280;10630;53.734;10.282;2023-01-25T02:36:55;103327.75;;;6.54;60.87
20942;BME280;10630;53.734;10.282;2023-01-25T02:39:21;103313.66;;;6.53;61.37
20942;BME280;10630;53.734;10.282;2023-01-25T02:41:51;103318.47;;;5.89;61.58
20942;BME280;10630;53.734;10.282;2023-01-25T02:44:25;103313.56;;;6.00;62.25
20942;BME280;10630;53.734;10.282;2023-01-25T02:46:52;103312.22;;;6.28;62.97
20942;BME280;10630;53.734;10.282;2023-01-25T02:49:19;103306.78;;;6.31;61.80
20942;BME280;10630;53.734;10.282;2023-01-25T02:51:48;103300.22;;;6.21;62.31
20942;BME280;10630;53.734;10.282;2023-01-25T02:54:15;103296.53;;;5.87;63.34
20942;BME280;10630;53.734;10.282;2023-01-25T02:56:43;103304.03;;;5.96;62.75
20942;BME280;10630;53.734;10.282;2023-01-25T02:59:09;103309.81;;;5.47;63.42
20942;BME280;10630;53.734;10.282;2023-01-25T03:01:39;103311.53;;;5.48;64.31
20942;BME280;10630;53.734;10.282;2023-01-25T03:04:06;103303.31;;;5.74;64.36
20942;BME280;10630;53.734;10.282;2023-01-25T03:06:33;103303.41;;;5.72;63.83
20942;BME280;10630;53.734;10.282;2023-01-25T03:09:00;103296.53;;;5.87;63.76
20942;BME280;10630;53.734;10.282;2023-01-25T03:11:27;103289.47;;;6.07;63.09
20942;BME280;10630;53.734;10.282;2023-01-25T03:13:53;103285.97;;;6.60;62.43
20942;BME280;10630;53.734;10.282;2023-01-25T03:16:20;103271.47;;;6.68;60.98
20942;BME280;10630;53.734;10.282;2023-01-25T03:18:47;103279.41;;;5.77;62.04
20942;BME280;10630;53.734;10.282;2023-01-25T03:21:15;103276.88;;;6.12;63.39
20942;BME280;10630;53.734;10.282;2023-01-25T03:23:42;103264.69;;;6.27;62.57
20942;BME280;10630;53.734;10.282;2023-01-25T03:26:12;103259.56;;;6.41;62.18
20942;BME280;10630;53.734;10.282;2023-01-25T03:28:39;103270.25;;;6.03;63.05
20942;BME280;10630;53.734;10.282;2023-01-25T03:31:06;103257.22;;;5.98;63.83
20942;BME280;10630;53.734;10.282;2023-01-25T03:33:34;103256.53;;;5.95;64.06
20942;BME280;10630;53.734;10.282;2023-01-25T03:36:00;103266.97;;;5.01;64.87
20942;BME280;10630;53.734;10.282;2023-01-25T03:38:27;103264.38;;;5.20;66.08
20942;BME280;10630;53.734;10.282;2023-01-25T03:40:54;103258.03;;;6.00;65.26
20942;BME280;10630;53.734;10.282;2023-01-25T03:43:21;103248.81;;;6.27;63.50
20942;BME280;10630;53.734;10.282;2023-01-25T03:45:51;103245.16;;;5.93;63.08
20942;BME280;10630;53.734;10.282;2023-01-25T03:48:18;103250.69;;;6.25;63.30
20942;BME280;10630;53.734;10.282;2023-01-25T03:50:49;103250.34;;;5.94;62.88
20942;BME280;10630;53.734;10.282;2023-01-25T03:53:21;103249.81;;;6.42;62.89
20942;BME280;10630;53.734;10.282;2023-01-25T03:55:56;103243.91;;;6.19;62.71
20942;BME280;10630;53.734;10.282;2023-01-25T03:58:22;103243.78;;;6.40;62.67
20942;BME280;10630;53.734;10.282;2023-01-25T04:00:49;103242.81;;;6.06;62.45
20942;BME280;10630;53.734;10.282;2023-01-25T04:03:16;103240.78;;;6.11;62.97
20942;BME280;10630;53.734;10.282;2023-01-25T04:05:44;103235.78;;;6.05;63.17
20942;BME280;10630;53.734;10.282;2023-01-25T04:08:11;103231.72;;;5.97;63.72
20942;BME280;10630;53.734;10.282;2023-01-25T04:10:38;103235.88;;;5.84;63.66
20942;BME280;10630;53.734;10.282;2023-01-25T04:13:05;103234.09;;;6.04;63.75
20942;BME280;10630;53.734;10.282;2023-01-25T04:15:31;103227.50;;;6.30;63.17
20942;BME280;10630;53.734;10.282;2023-01-25T04:17:58;103225.13;;;6.06;62.43
20942;BME280;10630;53.734;10.282;2023-01-25T04:20:24;103231.75;;;6.32;63.17
20942;BME280;10630;53.734;10.282;2023-01-25T04:22:51;103230.69;;;6.37;62.69
20942;BME280;10630;53.734;10.282;2023-01-25T04:25:17;103226.41;;;6.34;62.31
20942;BME280;10630;53.734;10.282;2023-01-25T04:27:45;103236.09;;;5.79;62.18
20942;BME280;10630;53.734;10.282;2023-01-25T04:30:12;103228.50;;;6.27;62.93
20942;BME280;10630;53.734;10.282;2023-01-25T04:32:38;103223.06;;;6.30;62.27
20942;BME280;10630;53.734;10.282;2023-01-25T04:35:06;103219.91;;;5.49;63.15
20942;BME280;10630;53.734;10.282;2023-01-25T04:37:34;103215.28;;;6.27;63.57
20942;BME280;10630;53.734;10.282;2023-01-25T04:40:00;103205.16;;;6.53;62.65
20942;BME280;10630;53.734;10.282;2023-01-25T04:42:27;103202.75;;;6.48;61.74
20942;BME280;10630;53.734;10.282;2023-01-25T04:44:55;103203.13;;;6.58;61.72
20942;BME280;10630;53.734;10.282;2023-01-25T04:47:21;103199.78;;;6.55;61.66
20942;BME280;10630;53.734;10.282;2023-01-25T04:49:48;103199.09;;;6.33;62.58
20942;BME280;10630;53.734;10.282;2023-01-25T04:52:14;103190.94;;;6.03;63.22
20942;BME280;10630;53.734;10.282;2023-01-25T04:54:41;103196.75;;;6.10;63.65
20942;BME280;10630;53.734;10.282;2023-01-25T04:57:07;103196.63;;;5.94;63.98
20942;BME280;10630;53.734;10.282;2023-01-25T04:59:34;103195.19;;;6.41;63.63
20942;BME280;10630;53.734;10.282;2023-01-25T05:02:01;103183.72;;;6.24;63.19
20942;BME280;10630;53.734;10.282;2023-01-25T05:04:27;103189.44;;;6.50;63.22
20942;BME280;10630;53.734;10.282;2023-01-25T05:06:54;103190.16;;;6.18;62.39
20942;BME280;10630;53.734;10.282;2023-01-25T05:09:20;103180.41;;;6.54;62.16
20942;BME280;10630;53.734;10.282;2023-01-25T05:11:47;103180.59;;;6.16;63.40
20942;BME280;10630;53.734;10.282;2023-01-25T05:14:14;103180.44;;;6.19;63.06
20942;BME280;10630;53.734;10.282;2023-01-25T05:16:41;103169.03;;;6.70;62.15
20942;BME280;10630;53.734;10.282;2023-01-25T05:19:08;103174.22;;;6.20;62.03
20942;BME280;10630;53.734;10.282;2023-01-25T05:21:35;103175.56;;;5.92;63.65
20942;BME280;10630;53.734;10.282;2023-01-25T05:24:20;103170.13;;;5.78;64.35
20942;BME280;10630;53.734;10.282;2023-01-25T05:26:47;103175.13;;;6.19;64.27
20942;BME280;10630;53.734;10.282;2023-01-25T05:29:27;103177.28;;;5.57;63.78
20942;BME280;10630;53.734;10.282;2023-01-25T05:31:53;103174.22;;;5.83;64.07
20942;BME280;10630;53.734;10.282;2023-01-25T05:34:20;103168.91;;;6.02;64.14
20942;BME280;10630;53.734;10.282;2023-01-25T05:36:47;103165.94;;;6.26;63.18
20942;BME280;10630;53.734;10.282;2023-01-25T05:39:13;103162.53;;;6.07;62.58
20942;BME280;10630;53.734;10.282;2023-01-25T05:41:40;103158.50;;;5.99;63.77
20942;BME280;10630;53.734;10.282;2023-01-25T05:44:06;103156.13;;;5.93;63.37
20942;BME280;10630;53.734;10.282;2023-01-25T05:46:33;103152.16;;;5.67;64.03
20942;BME280;10630;53.734;10.282;2023-01-25T05:49:01;103150.41;;;6.02;64.39
20942;BME280;10630;53.734;10.282;2023-01-25T05:51:27;103150.16;;;6.07;63.67
20942;BME280;10630;53.734;10.282;2023-01-25T05:53:54;103148.41;;;6.08;63.77
20942;BME280;10630;53.734;10.282;2023-01-25T05:56:21;103143.56;;;6.16;63.33
20942;BME280;10630;53.734;10.282;2023-01-25T05:58:54;103141.84;;;6.15;62.91
20942;BME280;10630;53.734;10.282;2023-01-25T06:01:21;103146.69;;;6.07;62.99
20942;BME280;10630;53.734;10.282;2023-01-25T06:03:48;103147.59;;;6.06;62.99
20942;BME280;10630;53.734;10.282;2023-01-25T06:06:15;103139.25;;;5.78;63.40
20942;BME280;10630;53.734;10.282;2023-01-25T06:08:42;103138.59;;;5.55;63.80
20942;BME280;10630;53.734;10.282;2023-01-25T06:11:09;103143.16;;;5.89;64.07
20942;BME280;10630;53.734;10.282;2023-01-25T06:13:36;103146.81;;;5.86;63.17
20942;BME280;10630;53.734;10.282;2023-01-25T06:16:04;103140.00;;;5.99;63.83
20942;BME280;10630;53.734;10.282;2023-01-25T06:18:32;103132.34;;;5.93;62.85
20942;BME280;10630;53.734;10.282;2023-01-25T06:20:59;103141.75;;;5.99;63.40
20942;BME280;10630;53.734;10.282;2023-01-25T06:23:26;103139.56;;;5.90;63.07
20942;BME280;10630;53.734;10.282;2023-01-25T06:25:56;103145.44;;;5.77;62.84
20942;BME280;10630;53.734;10.282;2023-01-25T06:28:23;103147.47;;;4.97;66.67
20942;BME280;10630;53.734;10.282;2023-01-25T06:30:49;103145.38;;;5.79;65.08
20942;BME280;10630;53.734;10.282;2023-01-25T06:33:16;103143.38;;;6.54;63.11
20942;BME280;10630;53.734;10.282;2023-01-25T06:35:42;103141.41;;;6.24;62.54
20942;BME280;10630;53.734;10.282;2023-01-25T06:38:09;103145.06;;;6.55;61.92
20942;BME280;10630;53.734;10.282;2023-01-25T06:40:36;103148.34;;;5.90;62.50
20942;BME280;10630;53.734;10.282;2023-01-25T06:43:06;103146.31;;;5.95;62.85
20942;BME280;10630;53.734;10.282;2023-01-25T06:45:32;103146.16;;;5.81;63.22
20942;BME280;10630;53.734;10.282;2023-01-25T06:47:59;103145.91;;;6.05;63.18
20942;BME280;10630;53.734;10.282;2023-01-25T06:50:26;103152.75;;;6.09;62.72
20942;BME280;10630;53.734;10.282;2023-01-25T06:52:52;103149.41;;;6.05;62.56
20942;BME280;10630;53.734;10.282;2023-01-25T06:55:19;103150.25;;;5.69;62.42
20942;BME280;10630;53.734;10.282;2023-01-25T06:57:46;103144.56;;;5.59;63.12
20942;BME280;10630;53.734;10.282;2023-01-25T07:00:16;103138.00;;;5.49;62.91
20942;BME280;10630;53.734;10.282;2023-01-25T07:02:43;103139.59;;;5.53;63.36
20942;BME280;10630;53.734;10.282;2023-01-25T07:05:10;103138.63;;;5.91;62.58
20942;BME280;10630;53.734;10.282;2023-01-25T07:07:37;103139.00;;;5.29;62.93
20942;BME280;10630;53.734;10.282;2023-01-25T07:10:04;103141.53;;;5.86;63.38
20942;BME280;10630;53.734;10.282;2023-01-25T07:12:30;103131.41;;;6.12;62.29
20942;BME280;10630;53.734;10.282;2023-01-25T07:14:57;103124.59;;;5.53;61.64
20942;BME280;10630;53.734;10.282;2023-01-25T07:17:24;103121.16;;;6.06;61.84
20942;BME280;10630;53.734;10.282;2023-01-25T07:19:50;103127.06;;;5.93;61.36
20942;BME280;10630;53.734;10.282;2023-01-25T07:22:17;103112.81;;;5.24;61.31
20942;BME280;10630;53.734;10.282;2023-01-25T07:24:43;103127.78;;;4.85;63.52
20942;BME280;10630;53.734;10.282;2023-01-25T07:27:15;103126.56;;;5.12;63.84
20942;BME280;10630;53.734;10.282;2023-01-25T07:29:42;103123.25;;;5.45;63.37
20942;BME280;10630;53.734;10.282;2023-01-25T07:32:10;103115.16;;;5.67;62.53
20942;BME280;10630;53.734;10.282;2023-01-25T07:34:37;103110.25;;;5.77;62.38
20942;BME280;10630;53.734;10.282;2023-01-25T07:37:04;103108.78;;;5.89;61.98
20942;BME280;10630;53.734;10.282;2023-01-25T07:39:30;103095.00;;;5.64;61.54
20942;BME280;10630;53.734;10.282;2023-01-25T07:41:57;103098.91;;;5.92;61.21
20942;BME280;10630;53.734;10.282;2023-01-25T07:44:23;103102.16;;;5.62;61.56
20942;BME280;10630;53.734;10.282;2023-01-25T07:46:51;103100.56;;;5.58;61.72
20942;BME280;10630;53.734;10.282;2023-01-25T07:49:18;103100.16;;;6.02;61.61
20942;BME280;10630;53.734;10.282;2023-01-25T07:51:45;103089.59;;;6.02;60.84
20942;BME280;10630;53.734;10.282;2023-01-25T07:54:11;103089.22;;;6.44;60.11
20942;BME280;10630;53.734;10.282;2023-01-25T07:56:38;103093.59;;;6.27;59.66
20942;BME280;10630;53.734;10.282;2023-01-25T07:59:06;103086.44;;;5.94;60.34
20942;BME280;10630;53.734;10.282;2023-01-25T08:01:35;103085.97;;;4.76;61.03
20942;BME280;10630;53.734;10.282;2023-01-25T08:04:02;103084.28;;;4.94;63.38
20942;BME280;10630;53.734;10.282;2023-01-25T08:06:30;103082.22;;;5.37;63.33
20942;BME280;10630;53.734;10.282;2023-01-25T08:09:05;103079.63;;;5.90;61.83
20942;BME280;10630;53.734;10.282;2023-01-25T08:11:32;103075.94;;;5.75;60.54
20942;BME280;10630;53.734;10.282;2023-01-25T08:13:59;103077.91;;;5.54;61.91
20942;BME280;10630;53.734;10.282;2023-01-25T08:16:28;103069.47;;;5.28;61.50
20942;BME280;10630;53.734;10.282;2023-01-25T08:18:56;103063.75;;;5.73;62.26
20942;BME280;10630;53.734;10.282;2023-01-25T08:21:24;103064.34;;;5.43;61.60
20942;BME280;10630;53.734;10.282;2023-01-25T08:23:55;103062.47;;;5.27;61.79
20942;BME280;10630;53.734;10.282;2023-01-25T08:26:22;103073.19;;;5.42;62.71
20942;BME280;10630;53.734;10.282;2023-01-25T08:28:49;103069.25;;;5.68;62.15
20942;BME280;10630;53.734;10.282;2023-01-25T08:31:20;103063.28;;;5.64;61.06
20942;BME280;10630;53.734;10.282;2023-01-25T08:33:48;103051.03;;;4.90;63.53
20942;BME280;10630;53.734;10.282;2023-01-25T08:36:15;103053.06;;;5.02;63.05
20942;BME280;10630;53.734;10.282;2023-01-25T08:38:44;103042.56;;;5.20;62.85
20942;BME280;10630;53.734;10.282;2023-01-25T08:41:11;103034.06;;;5.67;63.07
20942;BME280;10630;53.734;10.282;2023-01-25T08:43:39;103036.88;;;5.10;62.78
20942;BME280;10630;53.734;10.282;2023-01-25T08:46:06;103035.47;;;5.39;62.47
20942;BME280;10630;53.734;10.282;2023-01-25T08:48:33;103031.25;;;5.35;63.45
20942;BME280;10630;53.734;10.282;2023-01-25T08:51:00;103027.44;;;5.94;62.25
20942;BME280;10630;53.734;10.282;2023-01-25T08:53:30;103032.56;;;5.27;61.78
20942;BME280;10630;53.734;10.282;2023-01-25T08:56:07;103024.50;;;4.36;62.67
20942;BME280;10630;53.734;10.282;2023-01-25T08:58:36;103010.44;;;5.64;63.61
20942;BME280;10630;53.734;10.282;2023-01-25T09:01:06;102996.56;;;5.94;62.12
20942;BME280;10630;53.734;10.282;2023-01-25T09:03:34;103006.34;;;5.04;63.72
20942;BME280;10630;53.734;10.282;2023-01-25T09:06:01;103018.25;;;4.18;66.71
20942;BME280;10630;53.734;10.282;2023-01-25T09:08:28;103013.84;;;5.31;64.93
20942;BME280;10630;53.734;10.282;2023-01-25T09:10:59;103008.56;;;5.66;63.26
20942;BME280;10630;53.734;10.282;2023-01-25T09:13:26;103002.34;;;5.85;62.20
20942;BME280;10630;53.734;10.282;2023-01-25T09:15:57;102996.28;;;6.00;61.03
20942;BME280;10630;53.734;10.282;2023-01-25T09:18:24;102997.91;;;5.68;63.02
20942;BME280;10630;53.734;10.282;2023-01-25T09:20:50;103002.25;;;5.69;62.98
20942;BME280;10630;53.734;10.282;2023-01-25T09:23:18;102995.47;;;6.16;60.92
20942;BME280;10630;53.734;10.282;2023-01-25T09:25:48;102993.75;;;6.15;59.68
20942;BME280;10630;53.734;10.282;2023-01-25T09:28:21;102989.50;;;6.28;60.66
20942;BME280;10630;53.734;10.282;2023-01-25T09:30:54;103000.50;;;5.52;60.43
20942;BME280;10630;53.734;10.282;2023-01-25T09:33:41;102994.97;;;5.74;61.58
20942;BME280;10630;53.734;10.282;2023-01-25T09:36:08;102995.34;;;5.14;62.02
20942;BME280;10630;53.734;10.282;2023-01-25T09:38:35;103000.56;;;4.21;61.64
20942;BME280;10630;53.734;10.282;2023-01-25T09:46:58;102975.81;;;6.04;61.63
20942;BME280;10630;53.734;10.282;2023-01-25T09:52:15;102955.81;;;6.32;61.73
20942;BME280;10630;53.734;10.282;2023-01-25T09:54:47;102963.84;;;6.30;60.61
20942;BME280;10630;53.734;10.282;2023-01-25T09:57:18;102954.00;;;6.00;61.13
20942;BME280;10630;53.734;10.282;2023-01-25T09:59:48;102954.22;;;5.78;62.08
20942;BME280;10630;53.734;10.282;2023-01-25T10:02:18;102962.13;;;4.54;64.39
20942;BME280;10630;53.734;10.282;2023-01-25T10:04:50;102960.78;;;5.53;64.30
20942;BME280;10630;53.734;10.282;2023-01-25T10:08:03;102967.34;;;5.80;63.84
20942;BME280;10630;53.734;10.282;2023-01-25T10:10:20;102966.97;;;6.21;62.32
20942;BME280;10630;53.734;10.282;2023-01-25T10:12:48;102960.84;;;6.37;61.12
20942;BME280;10630;53.734;10.282;2023-01-25T10:17:44;102953.13;;;5.31;63.76
20942;BME280;10630;53.734;10.282;2023-01-25T10:20:29;102950.63;;;5.28;63.37
20942;BME280;10630;53.734;10.282;2023-01-25T10:30:41;102925.38;;;5.22;63.20
20942;BME280;10630;53.734;10.282;2023-01-25T10:33:12;102924.50;;;5.57;63.63
20942;BME280;10630;53.734;10.282;2023-01-25T10:35:42;102933.34;;;4.86;65.11
20942;BME280;10630;53.734;10.282;2023-01-25T10:38:35;102921.22;;;5.69;64.18
20942;BME280;10630;53.734;10.282;2023-01-25T10:43:35;102896.09;;;5.94;62.33
20942;BME280;10630;53.734;10.282;2023-01-25T10:46:01;102894.97;;;6.32;61.40
20942;BME280;10630;53.734;10.282;2023-01-25T10:48:29;102903.50;;;6.53;60.50
20942;BME280;10630;53.734;10.282;2023-01-25T10:50:58;102900.25;;;6.32;60.71
20942;BME280;10630;53.734;10.282;2023-01-25T10:55:57;102903.09;;;5.95;61.20
20942;BME280;10630;53.734;10.282;2023-01-25T10:58:28;102891.38;;;6.01;61.74
20942;BME280;10630;53.734;10.282;2023-01-25T11:00:55;102888.97;;;6.60;60.38
20942;BME280;10630;53.734;10.282;2023-01-25T11:03:22;102876.84;;;4.90;60.49
20942;BME280;10630;53.734;10.282;2023-01-25T11:05:56;102868.97;;;6.24;61.95
20942;BME280;10630;53.734;10.282;2023-01-25T11:10:55;102863.69;;;5.75;62.02
20942;BME280;10630;53.734;10.282;2023-01-25T11:13:28;102859.66;;;5.34;61.01
20942;BME280;10630;53.734;10.282;2023-01-25T11:18:30;102835.06;;;5.99;61.37
20942;BME280;10630;53.734;10.282;2023-01-25T11:23:28;102832.19;;;6.20;61.17
20942;BME280;10630;53.734;10.282;2023-01-25T11:26:18;102824.47;;;5.83;61.41
20942;BME280;10630;53.734;10.282;2023-01-25T11:28:44;102829.09;;;4.59;64.09
20942;BME280;10630;53.734;10.282;2023-01-25T11:31:12;102814.88;;;4.97;64.81
20942;BME280;10630;53.734;10.282;2023-01-25T11:33:40;102815.53;;;4.85;64.63
20942;BME280;10630;53.734;10.282;2023-01-25T11:36:16;102820.00;;;4.65;66.45
20942;BME280;10630;53.734;10.282;2023-01-25T11:38:56;102798.19;;;5.48;64.45
20942;BME280;10630;53.734;10.282;2023-01-25T11:49:53;102775.66;;;5.41;62.59
20942;BME280;10630;53.734;10.282;2023-01-25T11:55:15;102768.53;;;5.59;63.63
20942;BME280;10630;53.734;10.282;2023-01-25T12:07:54;102744.09;;;5.21;62.17
20942;BME280;10630;53.734;10.282;2023-01-25T12:10:33;102730.69;;;5.90;62.10
20942;BME280;10630;53.734;10.282;2023-01-25T12:16:13;102721.63;;;5.94;61.12
20942;BME280;10630;53.734;10.282;2023-01-25T12:24:13;102704.59;;;6.16;61.21
20942;BME280;10630;53.734;10.282;2023-01-25T12:31:36;102681.16;;;5.62;63.59
20942;BME280;10630;53.734;10.282;2023-01-25T12:34:12;102685.75;;;5.90;63.00
20942;BME280;10630;53.734;10.282;2023-01-25T12:36:43;102673.41;;;6.66;61.01
20942;BME280;10630;53.734;10.282;2023-01-25T12:49:21;102648.25;;;5.99;60.00
20942;BME280;10630;53.734;10.282;2023-01-25T12:51:49;102657.75;;;6.32;60.22
20942;BME280;10630;53.734;10.282;2023-01-25T12:54:21;102651.78;;;5.52;61.52
20942;BME280;10630;53.734;10.282;2023-01-25T12:59:38;102645.25;;;6.06;59.97
20942;BME280;10630;53.734;10.282;2023-01-25T13:02:33;102637.00;;;5.80;61.59
20942;BME280;10630;53.734;10.282;2023-01-25T13:05:09;102630.41;;;6.03;60.54
20942;BME280;10630;53.734;10.282;2023-01-25T13:07:42;102631.28;;;5.88;61.29
20942;BME280;10630;53.734;10.282;2023-01-25T13:10:15;102622.81;;;6.27;60.38
20942;BME280;10630;53.734;10.282;2023-01-25T13:12:50;102610.19;;;6.61;59.82
20942;BME280;10630;53.734;10.282;2023-01-25T13:15:36;102614.66;;;5.85;60.02
20942;BME280;10630;53.734;10.282;2023-01-25T13:20:49;102603.25;;;6.44;59.42
20942;BME280;10630;53.734;10.282;2023-01-25T13:28:42;102589.03;;;6.47;60.09
20942;BME280;10630;53.734;10.282;2023-01-25T13:31:10;102587.31;;;6.31;59.57
20942;BME280;10630;53.734;10.282;2023-01-25T13:34:58;102581.94;;;6.02;59.66
20942;BME280;10630;53.734;10.282;2023-01-25T13:37:17;102591.66;;;6.61;59.82
20942;BME280;10630;53.734;10.282;2023-01-25T13:44:39;102571.22;;;6.34;60.05
20942;BME280;10630;53.734;10.282;2023-01-25T13:47:18;102564.66;;;5.97;60.51
20942;BME280;10630;53.734;10.282;2023-01-25T13:52:26;102567.47;;;5.94;60.99
20942;BME280;10630;53.734;10.282;2023-01-25T13:54:54;102576.69;;;6.17;61.39
20942;BME280;10630;53.734;10.282;2023-01-25T13:57:27;102559.97;;;6.02;60.95
20942;BME280;10630;53.734;10.282;2023-01-25T14:00:05;102557.44;;;6.58;60.23
20942;BME280;10630;53.734;10.282;2023-01-25T14:02:36;102550.34;;;5.70;59.91
20942;BME280;10630;53.734;10.282;2023-01-25T14:05:04;102544.50;;;6.54;60.19
20942;BME280;10630;53.734;10.282;2023-01-25T14:07:33;102551.47;;;6.69;58.29
20942;BME280;10630;53.734;10.282;2023-01-25T14:10:14;102549.97;;;6.22;59.82
20942;BME280;10630;53.734;10.282;2023-01-25T14:12:41;102560.28;;;6.70;59.50
20942;BME280;10630;53.734;10.282;2023-01-25T14:15:09;102555.56;;;6.31;58.61
20942;BME280;10630;53.734;10.282;2023-01-25T14:17:36;102558.78;;;6.22;59.00
20942;BME280;10630;53.734;10.282;2023-01-25T14:20:10;102550.78;;;5.93;59.65
20942;BME280;10630;53.734;10.282;2023-01-25T14:22:45;102540.63;;;6.45;59.44
20942;BME280;10630;53.734;10.282;2023-01-25T14:25:13;102547.03;;;6.55;59.46
20942;BME280;10630;53.734;10.282;2023-01-25T14:27:41;102543.63;;;5.65;59.37
20942;BME280;10630;53.734;10.282;2023-01-25T14:30:19;102534.31;;;6.18;60.65
20942;BME280;10630;53.734;10.282;2023-01-25T14:32:47;102536.03;;;5.89;60.67
20942;BME280;10630;53.734;10.282;2023-01-25T14:40:50;102526.88;;;5.80;61.25
20942;BME280;10630;53.734;10.282;2023-01-25T14:43:18;102515.03;;;5.71;62.03
20942;BME280;10630;53.734;10.282;2023-01-25T14:45:45;102516.63;;;6.33;60.85
20942;BME280;10630;53.734;10.282;2023-01-25T14:51:01;102505.78;;;6.24;60.46